El Salvador, El Salvador

10:35 PM CST on September 02, 2014 (GMT -0600)
El Salvador International | Change Station
CLOSE
Current Station
Airport
Location: El Salvador,
Elevation: 82 ft
Nearby Weather Stations

Elev 82 ft 13.44 °N, 89.06 °W | Updated 45 minutes ago

Rain
Rain
72 °F
Feels Like 72 °F
N
5
Wind Variable Wind from South

Today
High -- | Low -- °F
--% Chance of Precip.
Yesterday
High -- | Low -- °F
Precip. -- in
5:44 AM 6:06 PM
First Quarter, 58% visible
Pressure 29.92 in
Visibility 6.2 miles
Clouds Few 300 ft
Scattered Clouds 2300 ft
Few 3700 ft
Dew Point 72 °F
Humidity 100%
Rainfall 0.00 in
Snow Depth Not available.
UV 0 out of 12
Pollen Not available.
Air Quality Not available.
Flu Activity Not available.
METAR MSLP 030350Z 17004KT 120V230 9999 RA FEW003 SCT023 FEW037CB 22/22 Q1013 A2994 RESHRA

More Conditions Fewer Conditions

Pressure 29.92 in
Visibility 6.2 miles
Clouds Few 300 ft
Scattered Clouds 2300 ft
Few 3700 ft
Dew Point 72 °F
Humidity 100%
Rainfall 0.00 in
Snow Depth Not available.
UV 0 out of 12
Pollen Not available.
Air Quality Not available.
Flu Activity Not available.
METAR MSLP 030350Z 17004KT 120V230 9999 RA FEW003 SCT023 FEW037CB 22/22 Q1013 A2994 RESHRA

More Conditions Fewer Conditions

10-Day Weather Forecast

Almanac

Astronomy

Sep. 02, 2014 Rise Set
Actual Time 5:44 AM CST 6:06 PM CST
Civil Twilight 5:23 AM CST 6:28 PM CST
Nautical Twilight 4:58 AM CST 6:53 PM CST
Astronomical Twilight 4:33 AM CST 7:18 PM CST
Moon 12:20 PM CST (9/2) No Moon Set
Length of Visible Light 13h 04m
Length of Day
12h 21m
Tomorrow will be 0m 43s shorter.
First Quarter, 58% of the Moon is Illuminated
Sep 3
First Quarter
Sep 8
Full
Sep 15
Last Quarter
Sep 24
New
Oct 1
First Quarter

Today's Extremes

Country Highs Country Lows

Community

WunderPhotos

Upload Photos

1,749,870 photos uploaded!

Nearby

Snow Depth

Not available.

Earthquake Activity

City Distance Mag. Time & Date
No recent earthquake activity has been reported nearby.
Minimum magnitude displayed is 2.5.

Coastal Water Temperatures

Place Temperature
No Stations Reporting

Nearby Weather Stations